METAR AND TAF INFORMATION
METAR FOR TKPK
ADDS - METARS form results

(0603 UTC 23 May 2019)
Data provider http://aviationweather.gov/metar/data/
 
Forecast for: TKPK (GOLDEN ROCKS/NEV, KN)
Text: TKPK 230538Z 2306/2406 10012KT P6SM VCSH SCT020 BKN045 AMD NOT SKED TIL 231100
Forecast period: 0600 UTC 23 May 2019 to 0600 UTC 24 May 2019
Forecast type: FROM: standard forecast or significant change
Winds: from the E (100 degrees) at 14 MPH (12 knots; 6.2 m/s)
Visibility: 6 or more miles 10+ km)
Ceiling: 4500 feet AGL
Clouds: scattered clouds at 2000 feet AGL
broken clouds at 4500 feet AGL
Weather: VCSH  (showers in vicinity)

 AIRPORT MAP

 RUNWAY INFORMATION
Runway 07 Runway length 7602 ft Runway width 148 ft
Runway elevation 168 ft Runway displaced threshold 200 ft Runway heading 57
Runway 25 Runway length 7602 ft Runway width 148 ft
Runway elevation 161 ft Runway displaced threshold 0 ft Runway heading 237

 AIRPORT FREQUENCIES
Type APP Name APP Frequency 119.6 MHZ
Type GND Name GND Frequency 121.9 MHZ
Type TWR Name TWR Frequency 118.3 MHZ

 AIRPORT NEAR NAVIGATION AIDS
Type NDB-DME Name Bradshaw Frequency 325 KHZ



Powered by Virtual Airlines Manager [v2.6.2]